sensor_id;sensor_type;location;lat;lon;timestamp;P1;durP1;ratioP1;P2;durP2;ratioP2
665;SDS011;315;48.738;9.126;2022-12-24T00:01:54;3.90;;;1.57;;
665;SDS011;315;48.738;9.126;2022-12-24T00:04:19;5.43;;;1.70;;
665;SDS011;315;48.738;9.126;2022-12-24T00:06:45;2.37;;;1.43;;
665;SDS011;315;48.738;9.126;2022-12-24T00:09:11;7.30;;;1.30;;
665;SDS011;315;48.738;9.126;2022-12-24T00:11:36;6.30;;;1.70;;
665;SDS011;315;48.738;9.126;2022-12-24T00:14:02;4.87;;;1.70;;
665;SDS011;315;48.738;9.126;2022-12-24T00:16:27;4.50;;;2.93;;
665;SDS011;315;48.738;9.126;2022-12-24T00:18:53;3.23;;;2.27;;
665;SDS011;315;48.738;9.126;2022-12-24T00:21:18;4.50;;;2.40;;
665;SDS011;315;48.738;9.126;2022-12-24T00:23:44;3.40;;;2.07;;
665;SDS011;315;48.738;9.126;2022-12-24T00:26:10;1.80;;;1.40;;
665;SDS011;315;48.738;9.126;2022-12-24T00:28:37;5.40;;;1.80;;
665;SDS011;315;48.738;9.126;2022-12-24T00:31:06;4.67;;;1.43;;
665;SDS011;315;48.738;9.126;2022-12-24T00:33:40;3.13;;;1.50;;
665;SDS011;315;48.738;9.126;2022-12-24T00:36:06;3.90;;;1.80;;
665;SDS011;315;48.738;9.126;2022-12-24T00:38:33;4.37;;;2.07;;
665;SDS011;315;48.738;9.126;2022-12-24T00:40:59;5.67;;;2.63;;
665;SDS011;315;48.738;9.126;2022-12-24T00:43:27;4.17;;;1.77;;
665;SDS011;315;48.738;9.126;2022-12-24T00:45:53;8.57;;;3.23;;
665;SDS011;315;48.738;9.126;2022-12-24T00:48:19;4.47;;;3.00;;
665;SDS011;315;48.738;9.126;2022-12-24T00:50:44;2.80;;;1.90;;
665;SDS011;315;48.738;9.126;2022-12-24T00:53:10;3.87;;;1.80;;
665;SDS011;315;48.738;9.126;2022-12-24T00:55:35;5.27;;;2.20;;
665;SDS011;315;48.738;9.126;2022-12-24T00:58:01;7.00;;;1.80;;
665;SDS011;315;48.738;9.126;2022-12-24T01:00:26;3.33;;;1.70;;
665;SDS011;315;48.738;9.126;2022-12-24T01:02:52;2.90;;;2.27;;
665;SDS011;315;48.738;9.126;2022-12-24T01:05:17;3.17;;;2.17;;
665;SDS011;315;48.738;9.126;2022-12-24T01:07:45;5.63;;;2.23;;
665;SDS011;315;48.738;9.126;2022-12-24T01:10:12;5.67;;;1.90;;
665;SDS011;315;48.738;9.126;2022-12-24T01:12:39;2.93;;;1.23;;
665;SDS011;315;48.738;9.126;2022-12-24T01:15:04;2.60;;;1.80;;
665;SDS011;315;48.738;9.126;2022-12-24T01:17:31;4.50;;;4.00;;
665;SDS011;315;48.738;9.126;2022-12-24T01:19:57;3.60;;;1.63;;
665;SDS011;315;48.738;9.126;2022-12-24T01:22:23;7.10;;;2.00;;
665;SDS011;315;48.738;9.126;2022-12-24T01:24:48;6.47;;;2.17;;
665;SDS011;315;48.738;9.126;2022-12-24T01:27:14;4.07;;;1.90;;
665;SDS011;315;48.738;9.126;2022-12-24T01:29:39;4.37;;;1.67;;
665;SDS011;315;48.738;9.126;2022-12-24T01:32:05;5.53;;;1.90;;
665;SDS011;315;48.738;9.126;2022-12-24T01:34:31;3.70;;;1.90;;
665;SDS011;315;48.738;9.126;2022-12-24T01:36:56;6.67;;;2.30;;
665;SDS011;315;48.738;9.126;2022-12-24T01:39:22;3.90;;;1.83;;
665;SDS011;315;48.738;9.126;2022-12-24T01:41:47;3.80;;;1.63;;
665;SDS011;315;48.738;9.126;2022-12-24T01:44:32;5.40;;;2.83;;
665;SDS011;315;48.738;9.126;2022-12-24T01:49:28;4.63;;;1.80;;
665;SDS011;315;48.738;9.126;2022-12-24T01:51:55;9.13;;;2.57;;
665;SDS011;315;48.738;9.126;2022-12-24T01:54:32;5.20;;;2.20;;
665;SDS011;315;48.738;9.126;2022-12-24T01:57:07;4.03;;;2.00;;
665;SDS011;315;48.738;9.126;2022-12-24T01:59:54;8.30;;;2.00;;
665;SDS011;315;48.738;9.126;2022-12-24T02:02:23;6.70;;;2.30;;
665;SDS011;315;48.738;9.126;2022-12-24T02:07:19;7.60;;;1.90;;
665;SDS011;315;48.738;9.126;2022-12-24T02:09:45;11.70;;;2.60;;
665;SDS011;315;48.738;9.126;2022-12-24T02:12:13;8.50;;;2.53;;
665;SDS011;315;48.738;9.126;2022-12-24T02:14:39;5.83;;;2.40;;
665;SDS011;315;48.738;9.126;2022-12-24T02:33:49;7.53;;;2.47;;
665;SDS011;315;48.738;9.126;2022-12-24T02:36:30;4.17;;;2.30;;
665;SDS011;315;48.738;9.126;2022-12-24T02:39:14;9.63;;;2.67;;
665;SDS011;315;48.738;9.126;2022-12-24T02:41:47;3.50;;;1.97;;
665;SDS011;315;48.738;9.126;2022-12-24T02:44:34;5.40;;;2.80;;
665;SDS011;315;48.738;9.126;2022-12-24T02:47:05;8.67;;;2.37;;
665;SDS011;315;48.738;9.126;2022-12-24T02:49:32;3.27;;;2.07;;
665;SDS011;315;48.738;9.126;2022-12-24T02:51:58;7.57;;;2.17;;
665;SDS011;315;48.738;9.126;2022-12-24T02:54:24;5.83;;;2.30;;
665;SDS011;315;48.738;9.126;2022-12-24T02:59:44;7.17;;;2.20;;
665;SDS011;315;48.738;9.126;2022-12-24T03:05:08;6.17;;;2.93;;
665;SDS011;315;48.738;9.126;2022-12-24T03:08:13;4.33;;;2.27;;
665;SDS011;315;48.738;9.126;2022-12-24T03:10:51;16.43;;;3.37;;
665;SDS011;315;48.738;9.126;2022-12-24T03:13:21;4.13;;;2.10;;
665;SDS011;315;48.738;9.126;2022-12-24T03:15:48;6.10;;;2.40;;
665;SDS011;315;48.738;9.126;2022-12-24T03:18:16;12.17;;;3.00;;
665;SDS011;315;48.738;9.126;2022-12-24T03:20:49;7.33;;;2.13;;
665;SDS011;315;48.738;9.126;2022-12-24T03:23:37;4.23;;;1.97;;
665;SDS011;315;48.738;9.126;2022-12-24T03:26:05;5.80;;;3.30;;
665;SDS011;315;48.738;9.126;2022-12-24T03:28:32;13.60;;;4.40;;
665;SDS011;315;48.738;9.126;2022-12-24T03:31:00;7.63;;;2.27;;
665;SDS011;315;48.738;9.126;2022-12-24T03:33:27;6.40;;;2.27;;
665;SDS011;315;48.738;9.126;2022-12-24T03:35:53;8.07;;;2.50;;
665;SDS011;315;48.738;9.126;2022-12-24T03:38:19;6.57;;;2.20;;
665;SDS011;315;48.738;9.126;2022-12-24T03:40:44;9.90;;;2.43;;
665;SDS011;315;48.738;9.126;2022-12-24T03:43:10;5.13;;;2.20;;
665;SDS011;315;48.738;9.126;2022-12-24T03:45:35;9.00;;;2.77;;
665;SDS011;315;48.738;9.126;2022-12-24T03:48:01;7.90;;;2.50;;
665;SDS011;315;48.738;9.126;2022-12-24T03:50:26;9.00;;;4.20;;
665;SDS011;315;48.738;9.126;2022-12-24T03:52:52;7.70;;;2.77;;
665;SDS011;315;48.738;9.126;2022-12-24T03:55:19;4.83;;;1.80;;
665;SDS011;315;48.738;9.126;2022-12-24T03:57:44;8.23;;;3.10;;
665;SDS011;315;48.738;9.126;2022-12-24T04:00:10;5.23;;;2.80;;
665;SDS011;315;48.738;9.126;2022-12-24T04:02:36;6.50;;;2.47;;
665;SDS011;315;48.738;9.126;2022-12-24T04:05:02;10.13;;;2.50;;
665;SDS011;315;48.738;9.126;2022-12-24T04:07:27;6.47;;;2.00;;
665;SDS011;315;48.738;9.126;2022-12-24T04:09:53;4.90;;;2.13;;
665;SDS011;315;48.738;9.126;2022-12-24T04:12:18;9.57;;;2.60;;
665;SDS011;315;48.738;9.126;2022-12-24T04:14:44;10.00;;;2.43;;
665;SDS011;315;48.738;9.126;2022-12-24T04:17:09;5.83;;;2.97;;
665;SDS011;315;48.738;9.126;2022-12-24T04:19:35;5.60;;;2.60;;
665;SDS011;315;48.738;9.126;2022-12-24T04:22:00;9.40;;;2.20;;
665;SDS011;315;48.738;9.126;2022-12-24T04:24:26;4.53;;;1.90;;
665;SDS011;315;48.738;9.126;2022-12-24T04:26:51;10.30;;;2.87;;
665;SDS011;315;48.738;9.126;2022-12-24T04:29:17;6.43;;;2.60;;
665;SDS011;315;48.738;9.126;2022-12-24T04:31:42;9.20;;;2.60;;
665;SDS011;315;48.738;9.126;2022-12-24T04:34:08;6.67;;;2.63;;
665;SDS011;315;48.738;9.126;2022-12-24T04:36:33;11.70;;;3.23;;
665;SDS011;315;48.738;9.126;2022-12-24T04:38:59;6.33;;;2.40;;
665;SDS011;315;48.738;9.126;2022-12-24T04:41:24;3.83;;;2.27;;
665;SDS011;315;48.738;9.126;2022-12-24T04:43:53;11.10;;;3.23;;
665;SDS011;315;48.738;9.126;2022-12-24T04:46:20;10.40;;;2.70;;
665;SDS011;315;48.738;9.126;2022-12-24T04:48:48;8.67;;;2.20;;
665;SDS011;315;48.738;9.126;2022-12-24T04:51:15;5.43;;;2.37;;
665;SDS011;315;48.738;9.126;2022-12-24T04:53:41;13.73;;;2.90;;
665;SDS011;315;48.738;9.126;2022-12-24T04:56:17;8.37;;;2.90;;
665;SDS011;315;48.738;9.126;2022-12-24T04:58:45;8.10;;;2.13;;
665;SDS011;315;48.738;9.126;2022-12-24T05:01:12;3.97;;;2.07;;
665;SDS011;315;48.738;9.126;2022-12-24T05:03:39;6.23;;;2.47;;
665;SDS011;315;48.738;9.126;2022-12-24T05:06:06;7.03;;;2.40;;
665;SDS011;315;48.738;9.126;2022-12-24T05:08:34;7.63;;;2.17;;
665;SDS011;315;48.738;9.126;2022-12-24T05:11:00;7.37;;;2.33;;
665;SDS011;315;48.738;9.126;2022-12-24T05:13:27;6.80;;;2.23;;
665;SDS011;315;48.738;9.126;2022-12-24T05:15:53;3.70;;;1.90;;
665;SDS011;315;48.738;9.126;2022-12-24T05:18:19;5.43;;;2.93;;
665;SDS011;315;48.738;9.126;2022-12-24T05:20:44;6.40;;;2.33;;
665;SDS011;315;48.738;9.126;2022-12-24T05:23:14;5.60;;;2.20;;
665;SDS011;315;48.738;9.126;2022-12-24T05:26:07;8.97;;;2.50;;
665;SDS011;315;48.738;9.126;2022-12-24T05:28:48;10.03;;;2.63;;
665;SDS011;315;48.738;9.126;2022-12-24T05:31:15;7.57;;;2.67;;
665;SDS011;315;48.738;9.126;2022-12-24T05:33:41;7.80;;;2.40;;
665;SDS011;315;48.738;9.126;2022-12-24T05:36:07;6.83;;;2.00;;
665;SDS011;315;48.738;9.126;2022-12-24T05:38:33;10.70;;;2.70;;
665;SDS011;315;48.738;9.126;2022-12-24T05:40:58;4.10;;;1.87;;
665;SDS011;315;48.738;9.126;2022-12-24T05:43:24;7.53;;;2.33;;
665;SDS011;315;48.738;9.126;2022-12-24T05:45:50;3.90;;;2.10;;
665;SDS011;315;48.738;9.126;2022-12-24T05:48:16;7.40;;;2.80;;
665;SDS011;315;48.738;9.126;2022-12-24T05:50:41;9.33;;;2.77;;
665;SDS011;315;48.738;9.126;2022-12-24T05:53:07;7.53;;;2.67;;
665;SDS011;315;48.738;9.126;2022-12-24T05:55:32;6.07;;;2.60;;
665;SDS011;315;48.738;9.126;2022-12-24T05:57:58;4.70;;;2.80;;
665;SDS011;315;48.738;9.126;2022-12-24T06:00:23;8.33;;;2.70;;
665;SDS011;315;48.738;9.126;2022-12-24T06:02:49;11.77;;;3.30;;
665;SDS011;315;48.738;9.126;2022-12-24T06:05:15;4.43;;;2.90;;
665;SDS011;315;48.738;9.126;2022-12-24T06:07:40;7.33;;;3.13;;
665;SDS011;315;48.738;9.126;2022-12-24T06:10:06;8.40;;;2.70;;
665;SDS011;315;48.738;9.126;2022-12-24T06:12:32;4.60;;;2.00;;
665;SDS011;315;48.738;9.126;2022-12-24T06:14:58;6.90;;;2.67;;
665;SDS011;315;48.738;9.126;2022-12-24T06:17:24;9.40;;;2.30;;
665;SDS011;315;48.738;9.126;2022-12-24T06:19:49;8.40;;;2.73;;
665;SDS011;315;48.738;9.126;2022-12-24T06:22:15;3.77;;;2.10;;
665;SDS011;315;48.738;9.126;2022-12-24T06:24:41;9.13;;;1.97;;
665;SDS011;315;48.738;9.126;2022-12-24T06:27:06;6.93;;;2.30;;
665;SDS011;315;48.738;9.126;2022-12-24T06:29:32;7.07;;;2.93;;
665;SDS011;315;48.738;9.126;2022-12-24T06:31:57;6.37;;;2.10;;
665;SDS011;315;48.738;9.126;2022-12-24T06:34:23;5.07;;;2.10;;
665;SDS011;315;48.738;9.126;2022-12-24T06:36:48;9.00;;;2.60;;
665;SDS011;315;48.738;9.126;2022-12-24T06:39:14;11.43;;;2.57;;
665;SDS011;315;48.738;9.126;2022-12-24T06:41:39;9.97;;;2.80;;
665;SDS011;315;48.738;9.126;2022-12-24T06:44:05;3.50;;;1.97;;
665;SDS011;315;48.738;9.126;2022-12-24T06:46:30;6.43;;;2.57;;
665;SDS011;315;48.738;9.126;2022-12-24T06:48:56;5.60;;;2.93;;
665;SDS011;315;48.738;9.126;2022-12-24T06:51:21;8.10;;;2.73;;
665;SDS011;315;48.738;9.126;2022-12-24T06:53:48;13.33;;;2.70;;
665;SDS011;315;48.738;9.126;2022-12-24T06:56:17;3.50;;;2.30;;
665;SDS011;315;48.738;9.126;2022-12-24T06:58:43;5.00;;;2.23;;
665;SDS011;315;48.738;9.126;2022-12-24T07:01:12;14.37;;;3.07;;
665;SDS011;315;48.738;9.126;2022-12-24T07:03:39;5.07;;;1.90;;
665;SDS011;315;48.738;9.126;2022-12-24T07:06:05;8.20;;;2.67;;
665;SDS011;315;48.738;9.126;2022-12-24T07:08:31;4.53;;;2.20;;
665;SDS011;315;48.738;9.126;2022-12-24T07:10:58;6.33;;;2.60;;
665;SDS011;315;48.738;9.126;2022-12-24T07:13:24;12.10;;;3.20;;
665;SDS011;315;48.738;9.126;2022-12-24T07:15:59;8.40;;;3.20;;
665;SDS011;315;48.738;9.126;2022-12-24T07:18:26;7.27;;;3.37;;
665;SDS011;315;48.738;9.126;2022-12-24T07:20:52;8.90;;;2.67;;
665;SDS011;315;48.738;9.126;2022-12-24T07:23:17;4.83;;;2.63;;
665;SDS011;315;48.738;9.126;2022-12-24T07:25:43;8.87;;;3.10;;
665;SDS011;315;48.738;9.126;2022-12-24T07:28:09;8.70;;;2.90;;
665;SDS011;315;48.738;9.126;2022-12-24T07:30:34;11.00;;;2.70;;
665;SDS011;315;48.738;9.126;2022-12-24T07:33:00;7.87;;;3.27;;
665;SDS011;315;48.738;9.126;2022-12-24T07:35:26;10.30;;;3.30;;
665;SDS011;315;48.738;9.126;2022-12-24T07:37:51;5.63;;;2.70;;
665;SDS011;315;48.738;9.126;2022-12-24T07:40:17;9.93;;;2.90;;
665;SDS011;315;48.738;9.126;2022-12-24T07:42:42;4.20;;;2.27;;
665;SDS011;315;48.738;9.126;2022-12-24T07:45:08;10.73;;;2.70;;
665;SDS011;315;48.738;9.126;2022-12-24T07:47:34;8.73;;;3.20;;
665;SDS011;315;48.738;9.126;2022-12-24T07:50:00;7.53;;;2.43;;
665;SDS011;315;48.738;9.126;2022-12-24T07:52:26;7.80;;;2.67;;
665;SDS011;315;48.738;9.126;2022-12-24T07:54:51;6.47;;;3.00;;
665;SDS011;315;48.738;9.126;2022-12-24T07:57:17;11.80;;;3.63;;
665;SDS011;315;48.738;9.126;2022-12-24T07:59:42;9.40;;;3.03;;
665;SDS011;315;48.738;9.126;2022-12-24T08:02:09;5.67;;;3.17;;
665;SDS011;315;48.738;9.126;2022-12-24T08:04:35;6.10;;;3.13;;
665;SDS011;315;48.738;9.126;2022-12-24T08:07:02;12.00;;;3.00;;
665;SDS011;315;48.738;9.126;2022-12-24T08:09:30;8.13;;;2.87;;
665;SDS011;315;48.738;9.126;2022-12-24T08:11:56;9.50;;;3.37;;
665;SDS011;315;48.738;9.126;2022-12-24T08:14:21;8.43;;;3.70;;
665;SDS011;315;48.738;9.126;2022-12-24T08:16:47;12.43;;;5.20;;
665;SDS011;315;48.738;9.126;2022-12-24T08:19:12;7.00;;;3.63;;
665;SDS011;315;48.738;9.126;2022-12-24T08:21:38;6.60;;;3.53;;
665;SDS011;315;48.738;9.126;2022-12-24T08:24:03;11.20;;;3.63;;
665;SDS011;315;48.738;9.126;2022-12-24T08:26:29;6.53;;;2.77;;
665;SDS011;315;48.738;9.126;2022-12-24T08:28:55;10.87;;;4.27;;
665;SDS011;315;48.738;9.126;2022-12-24T08:31:20;9.40;;;3.17;;
665;SDS011;315;48.738;9.126;2022-12-24T08:33:46;9.60;;;2.80;;
665;SDS011;315;48.738;9.126;2022-12-24T08:36:11;4.07;;;2.43;;
665;SDS011;315;48.738;9.126;2022-12-24T08:38:37;6.40;;;2.50;;
665;SDS011;315;48.738;9.126;2022-12-24T08:41:02;12.90;;;3.40;;
665;SDS011;315;48.738;9.126;2022-12-24T08:43:28;7.80;;;3.90;;
665;SDS011;315;48.738;9.126;2022-12-24T08:45:53;9.37;;;4.20;;
665;SDS011;315;48.738;9.126;2022-12-24T08:48:19;8.50;;;3.10;;
665;SDS011;315;48.738;9.126;2022-12-24T08:50:44;6.43;;;3.33;;
665;SDS011;315;48.738;9.126;2022-12-24T08:53:10;5.33;;;2.77;;
665;SDS011;315;48.738;9.126;2022-12-24T08:55:36;4.50;;;2.90;;
665;SDS011;315;48.738;9.126;2022-12-24T08:58:01;8.47;;;3.03;;
665;SDS011;315;48.738;9.126;2022-12-24T09:00:27;9.30;;;3.07;;
665;SDS011;315;48.738;9.126;2022-12-24T09:02:53;9.40;;;2.67;;
665;SDS011;315;48.738;9.126;2022-12-24T09:05:20;8.33;;;2.30;;
665;SDS011;315;48.738;9.126;2022-12-24T09:07:45;16.80;;;3.50;;
665;SDS011;315;48.738;9.126;2022-12-24T09:10:11;6.13;;;3.30;;
665;SDS011;315;48.738;9.126;2022-12-24T09:12:37;6.60;;;2.83;;
665;SDS011;315;48.738;9.126;2022-12-24T09:15:03;7.07;;;3.83;;
665;SDS011;315;48.738;9.126;2022-12-24T09:17:32;13.57;;;4.37;;
665;SDS011;315;48.738;9.126;2022-12-24T09:19:58;7.50;;;3.33;;
665;SDS011;315;48.738;9.126;2022-12-24T09:22:24;5.90;;;3.00;;
665;SDS011;315;48.738;9.126;2022-12-24T09:24:52;11.40;;;3.40;;
665;SDS011;315;48.738;9.126;2022-12-24T09:27:17;4.57;;;3.30;;
665;SDS011;315;48.738;9.126;2022-12-24T09:29:43;6.23;;;3.00;;
665;SDS011;315;48.738;9.126;2022-12-24T09:32:08;10.30;;;2.83;;
665;SDS011;315;48.738;9.126;2022-12-24T09:34:34;5.07;;;3.20;;
665;SDS011;315;48.738;9.126;2022-12-24T09:37:00;9.50;;;3.43;;
665;SDS011;315;48.738;9.126;2022-12-24T09:39:27;9.93;;;3.87;;
665;SDS011;315;48.738;9.126;2022-12-24T09:42:06;11.13;;;4.40;;
665;SDS011;315;48.738;9.126;2022-12-24T09:44:53;17.43;;;3.83;;
665;SDS011;315;48.738;9.126;2022-12-24T09:47:42;11.23;;;3.20;;
665;SDS011;315;48.738;9.126;2022-12-24T09:50:29;11.97;;;3.70;;
665;SDS011;315;48.738;9.126;2022-12-24T09:53:04;7.70;;;3.60;;
665;SDS011;315;48.738;9.126;2022-12-24T09:55:48;9.70;;;2.70;;
665;SDS011;315;48.738;9.126;2022-12-24T09:58:40;6.30;;;3.03;;
665;SDS011;315;48.738;9.126;2022-12-24T10:01:09;5.07;;;3.50;;
665;SDS011;315;48.738;9.126;2022-12-24T10:03:36;9.60;;;4.00;;
665;SDS011;315;48.738;9.126;2022-12-24T10:11:51;7.70;;;3.53;;
665;SDS011;315;48.738;9.126;2022-12-24T10:14:37;5.13;;;3.47;;
665;SDS011;315;48.738;9.126;2022-12-24T10:17:29;7.07;;;4.73;;
665;SDS011;315;48.738;9.126;2022-12-24T10:25:55;15.67;;;7.10;;
665;SDS011;315;48.738;9.126;2022-12-24T10:31:22;9.37;;;5.33;;
665;SDS011;315;48.738;9.126;2022-12-24T10:34:00;14.10;;;10.40;;
665;SDS011;315;48.738;9.126;2022-12-24T10:36:30;11.17;;;7.80;;
665;SDS011;315;48.738;9.126;2022-12-24T10:38:56;18.90;;;11.30;;
665;SDS011;315;48.738;9.126;2022-12-24T10:41:22;12.77;;;6.70;;
665;SDS011;315;48.738;9.126;2022-12-24T10:43:49;10.63;;;4.80;;
665;SDS011;315;48.738;9.126;2022-12-24T10:48:55;17.70;;;6.83;;
665;SDS011;315;48.738;9.126;2022-12-24T10:51:28;8.53;;;4.40;;
665;SDS011;315;48.738;9.126;2022-12-24T10:56:42;9.33;;;5.43;;
665;SDS011;315;48.738;9.126;2022-12-24T11:02:30;9.43;;;5.20;;
665;SDS011;315;48.738;9.126;2022-12-24T11:04:57;10.43;;;4.87;;
665;SDS011;315;48.738;9.126;2022-12-24T11:07:24;9.23;;;3.70;;
665;SDS011;315;48.738;9.126;2022-12-24T11:09:55;8.87;;;4.13;;
665;SDS011;315;48.738;9.126;2022-12-24T11:12:30;10.20;;;3.97;;
665;SDS011;315;48.738;9.126;2022-12-24T11:15:04;9.17;;;4.33;;
665;SDS011;315;48.738;9.126;2022-12-24T11:17:38;8.60;;;3.50;;
665;SDS011;315;48.738;9.126;2022-12-24T11:20:04;6.73;;;3.00;;
665;SDS011;315;48.738;9.126;2022-12-24T11:22:30;8.60;;;3.93;;
665;SDS011;315;48.738;9.126;2022-12-24T11:27:30;17.93;;;6.13;;
665;SDS011;315;48.738;9.126;2022-12-24T11:32:43;13.13;;;5.17;;
665;SDS011;315;48.738;9.126;2022-12-24T11:35:15;11.17;;;3.80;;
665;SDS011;315;48.738;9.126;2022-12-24T11:38:08;8.03;;;3.00;;
665;SDS011;315;48.738;9.126;2022-12-24T11:40:40;9.67;;;5.00;;
665;SDS011;315;48.738;9.126;2022-12-24T11:43:19;12.33;;;3.57;;
665;SDS011;315;48.738;9.126;2022-12-24T11:48:22;7.77;;;4.50;;
665;SDS011;315;48.738;9.126;2022-12-24T11:51:00;7.23;;;3.93;;
665;SDS011;315;48.738;9.126;2022-12-24T11:53:30;10.73;;;4.00;;
665;SDS011;315;48.738;9.126;2022-12-24T11:56:32;6.80;;;2.77;;
665;SDS011;315;48.738;9.126;2022-12-24T11:59:21;9.60;;;2.50;;
665;SDS011;315;48.738;9.126;2022-12-24T12:01:58;8.23;;;2.77;;
665;SDS011;315;48.738;9.126;2022-12-24T12:04:29;6.70;;;3.17;;
665;SDS011;315;48.738;9.126;2022-12-24T12:09:37;6.73;;;2.87;;
665;SDS011;315;48.738;9.126;2022-12-24T12:12:08;8.73;;;3.27;;
665;SDS011;315;48.738;9.126;2022-12-24T12:14:44;5.93;;;2.93;;
665;SDS011;315;48.738;9.126;2022-12-24T12:17:23;5.53;;;2.90;;
665;SDS011;315;48.738;9.126;2022-12-24T12:22:44;8.20;;;3.70;;
665;SDS011;315;48.738;9.126;2022-12-24T12:25:34;5.93;;;3.30;;
665;SDS011;315;48.738;9.126;2022-12-24T12:31:15;6.73;;;3.50;;
665;SDS011;315;48.738;9.126;2022-12-24T12:36:22;7.33;;;3.17;;
665;SDS011;315;48.738;9.126;2022-12-24T12:38:53;9.30;;;3.63;;
665;SDS011;315;48.738;9.126;2022-12-24T12:58:33;6.63;;;2.80;;
665;SDS011;315;48.738;9.126;2022-12-24T13:01:28;11.23;;;3.53;;
665;SDS011;315;48.738;9.126;2022-12-24T13:17:47;7.63;;;3.07;;
665;SDS011;315;48.738;9.126;2022-12-24T13:20:25;10.10;;;3.20;;
665;SDS011;315;48.738;9.126;2022-12-24T13:25:44;14.70;;;3.10;;
665;SDS011;315;48.738;9.126;2022-12-24T13:30:47;6.10;;;3.00;;
665;SDS011;315;48.738;9.126;2022-12-24T13:36:04;11.20;;;3.20;;
665;SDS011;315;48.738;9.126;2022-12-24T13:46:50;7.07;;;3.23;;
665;SDS011;315;48.738;9.126;2022-12-24T13:52:26;10.17;;;3.60;;
665;SDS011;315;48.738;9.126;2022-12-24T14:05:37;12.13;;;3.43;;
665;SDS011;315;48.738;9.126;2022-12-24T14:08:24;6.67;;;3.27;;
665;SDS011;315;48.738;9.126;2022-12-24T14:11:06;10.10;;;3.67;;
665;SDS011;315;48.738;9.126;2022-12-24T14:16:16;9.33;;;4.43;;
665;SDS011;315;48.738;9.126;2022-12-24T14:19:02;8.07;;;3.87;;
665;SDS011;315;48.738;9.126;2022-12-24T14:21:41;11.10;;;3.53;;
665;SDS011;315;48.738;9.126;2022-12-24T14:24:18;7.87;;;3.33;;
665;SDS011;315;48.738;9.126;2022-12-24T14:26:51;11.67;;;3.63;;
665;SDS011;315;48.738;9.126;2022-12-24T14:29:27;13.90;;;3.90;;
665;SDS011;315;48.738;9.126;2022-12-24T14:31:59;12.87;;;4.43;;
665;SDS011;315;48.738;9.126;2022-12-24T14:34:29;7.83;;;3.77;;
665;SDS011;315;48.738;9.126;2022-12-24T14:37:02;8.70;;;4.60;;
665;SDS011;315;48.738;9.126;2022-12-24T14:39:32;6.17;;;4.10;;
665;SDS011;315;48.738;9.126;2022-12-24T14:42:06;11.10;;;4.00;;
665;SDS011;315;48.738;9.126;2022-12-24T14:44:48;10.70;;;4.93;;
665;SDS011;315;48.738;9.126;2022-12-24T14:47:29;8.83;;;3.80;;
665;SDS011;315;48.738;9.126;2022-12-24T14:55:58;8.53;;;3.50;;
665;SDS011;315;48.738;9.126;2022-12-24T14:58:37;7.53;;;3.60;;
665;SDS011;315;48.738;9.126;2022-12-24T15:01:23;9.20;;;3.20;;
665;SDS011;315;48.738;9.126;2022-12-24T15:04:01;11.43;;;3.10;;
665;SDS011;315;48.738;9.126;2022-12-24T15:06:28;6.10;;;2.90;;
665;SDS011;315;48.738;9.126;2022-12-24T15:08:58;11.83;;;4.20;;
665;SDS011;315;48.738;9.126;2022-12-24T15:11:24;14.10;;;4.90;;
665;SDS011;315;48.738;9.126;2022-12-24T15:13:53;7.07;;;4.00;;
665;SDS011;315;48.738;9.126;2022-12-24T15:16:22;8.93;;;3.73;;
665;SDS011;315;48.738;9.126;2022-12-24T15:18:52;9.60;;;3.43;;
665;SDS011;315;48.738;9.126;2022-12-24T15:21:24;13.67;;;5.07;;
665;SDS011;315;48.738;9.126;2022-12-24T15:24:01;7.07;;;4.20;;
665;SDS011;315;48.738;9.126;2022-12-24T15:26:28;6.73;;;4.23;;
665;SDS011;315;48.738;9.126;2022-12-24T15:29:00;15.90;;;5.03;;
665;SDS011;315;48.738;9.126;2022-12-24T15:31:37;10.10;;;4.30;;
665;SDS011;315;48.738;9.126;2022-12-24T15:34:03;9.20;;;4.03;;
665;SDS011;315;48.738;9.126;2022-12-24T15:38:57;8.77;;;5.33;;
665;SDS011;315;48.738;9.126;2022-12-24T15:41:26;9.17;;;4.70;;
665;SDS011;315;48.738;9.126;2022-12-24T15:43:58;10.27;;;6.00;;
665;SDS011;315;48.738;9.126;2022-12-24T15:46:26;10.07;;;5.33;;
665;SDS011;315;48.738;9.126;2022-12-24T15:48:54;17.50;;;6.53;;
665;SDS011;315;48.738;9.126;2022-12-24T15:51:22;12.23;;;5.83;;
665;SDS011;315;48.738;9.126;2022-12-24T15:53:58;13.23;;;5.40;;
665;SDS011;315;48.738;9.126;2022-12-24T15:56:50;12.43;;;5.50;;
665;SDS011;315;48.738;9.126;2022-12-24T16:01:43;13.00;;;4.70;;
665;SDS011;315;48.738;9.126;2022-12-24T16:04:12;12.03;;;5.80;;
665;SDS011;315;48.738;9.126;2022-12-24T16:09:47;14.80;;;4.87;;
665;SDS011;315;48.738;9.126;2022-12-24T16:12:16;7.70;;;4.30;;
665;SDS011;315;48.738;9.126;2022-12-24T16:14:52;13.80;;;5.80;;
665;SDS011;315;48.738;9.126;2022-12-24T16:17:28;8.47;;;5.23;;
665;SDS011;315;48.738;9.126;2022-12-24T16:20:03;8.40;;;4.47;;
665;SDS011;315;48.738;9.126;2022-12-24T16:22:39;8.27;;;4.77;;
665;SDS011;315;48.738;9.126;2022-12-24T16:25:25;8.80;;;4.40;;
665;SDS011;315;48.738;9.126;2022-12-24T16:27:52;5.40;;;4.27;;
665;SDS011;315;48.738;9.126;2022-12-24T16:30:18;7.33;;;3.80;;
665;SDS011;315;48.738;9.126;2022-12-24T16:32:45;8.03;;;4.67;;
665;SDS011;315;48.738;9.126;2022-12-24T16:35:17;6.73;;;3.50;;
665;SDS011;315;48.738;9.126;2022-12-24T16:37:52;11.00;;;5.03;;
665;SDS011;315;48.738;9.126;2022-12-24T16:40:18;10.27;;;5.50;;
665;SDS011;315;48.738;9.126;2022-12-24T16:42:44;12.87;;;7.37;;
665;SDS011;315;48.738;9.126;2022-12-24T16:45:28;17.03;;;9.57;;
665;SDS011;315;48.738;9.126;2022-12-24T16:47:57;15.13;;;9.07;;
665;SDS011;315;48.738;9.126;2022-12-24T16:50:23;16.93;;;5.70;;
665;SDS011;315;48.738;9.126;2022-12-24T16:52:49;19.57;;;6.20;;
665;SDS011;315;48.738;9.126;2022-12-24T16:55:14;8.00;;;4.03;;
665;SDS011;315;48.738;9.126;2022-12-24T16:57:40;8.33;;;3.50;;
665;SDS011;315;48.738;9.126;2022-12-24T17:00:07;7.80;;;4.70;;
665;SDS011;315;48.738;9.126;2022-12-24T17:02:38;11.67;;;4.30;;
665;SDS011;315;48.738;9.126;2022-12-24T17:05:04;8.23;;;4.40;;
665;SDS011;315;48.738;9.126;2022-12-24T17:07:30;6.40;;;5.70;;
665;SDS011;315;48.738;9.126;2022-12-24T17:09:55;10.40;;;7.20;;
665;SDS011;315;48.738;9.126;2022-12-24T17:12:21;9.70;;;6.10;;
665;SDS011;315;48.738;9.126;2022-12-24T17:14:46;21.17;;;12.47;;
665;SDS011;315;48.738;9.126;2022-12-24T17:17:26;10.73;;;6.23;;
665;SDS011;315;48.738;9.126;2022-12-24T17:19:55;22.90;;;17.43;;
665;SDS011;315;48.738;9.126;2022-12-24T17:22:21;22.03;;;11.93;;
665;SDS011;315;48.738;9.126;2022-12-24T17:24:47;15.20;;;6.50;;
665;SDS011;315;48.738;9.126;2022-12-24T17:27:13;9.70;;;5.97;;
665;SDS011;315;48.738;9.126;2022-12-24T17:29:39;26.47;;;20.83;;
665;SDS011;315;48.738;9.126;2022-12-24T17:32:05;60.63;;;53.27;;
665;SDS011;315;48.738;9.126;2022-12-24T17:34:30;27.70;;;20.20;;
665;SDS011;315;48.738;9.126;2022-12-24T17:36:56;11.10;;;7.30;;
665;SDS011;315;48.738;9.126;2022-12-24T17:39:22;5.90;;;4.00;;
665;SDS011;315;48.738;9.126;2022-12-24T17:41:48;28.23;;;18.67;;
665;SDS011;315;48.738;9.126;2022-12-24T17:44:14;12.53;;;7.53;;
665;SDS011;315;48.738;9.126;2022-12-24T17:46:40;9.97;;;8.20;;
665;SDS011;315;48.738;9.126;2022-12-24T17:49:06;9.97;;;5.43;;
665;SDS011;315;48.738;9.126;2022-12-24T17:51:32;5.63;;;3.20;;
665;SDS011;315;48.738;9.126;2022-12-24T17:53:58;7.37;;;3.10;;
665;SDS011;315;48.738;9.126;2022-12-24T17:56:24;19.30;;;9.70;;
665;SDS011;315;48.738;9.126;2022-12-24T17:58:51;6.87;;;3.17;;
665;SDS011;315;48.738;9.126;2022-12-24T18:01:18;11.30;;;5.53;;
665;SDS011;315;48.738;9.126;2022-12-24T18:03:45;5.63;;;3.30;;
665;SDS011;315;48.738;9.126;2022-12-24T18:06:12;10.33;;;3.90;;
665;SDS011;315;48.738;9.126;2022-12-24T18:08:38;6.50;;;3.40;;
665;SDS011;315;48.738;9.126;2022-12-24T18:11:15;6.10;;;4.40;;
665;SDS011;315;48.738;9.126;2022-12-24T18:13:41;8.20;;;4.53;;
665;SDS011;315;48.738;9.126;2022-12-24T18:16:17;7.03;;;3.50;;
665;SDS011;315;48.738;9.126;2022-12-24T18:18:45;7.23;;;4.80;;
665;SDS011;315;48.738;9.126;2022-12-24T18:21:12;5.77;;;3.63;;